createdAt,value
2016-12-05T12:33:32.678Z,262140
2016-12-05T12:34:13.331Z,262140
2016-12-05T12:39:34.288Z,484
2016-12-05T12:40:14.747Z,512
2016-12-05T12:43:23.067Z,888
2016-12-05T12:44:03.533Z,940
2016-12-05T12:50:26.921Z,436
2016-12-05T12:52:36.618Z,428
2016-12-05T12:53:18.689Z,428
2016-12-05T12:53:59.154Z,424
2016-12-05T12:54:39.604Z,424
2016-12-05T12:55:20.168Z,424
2016-12-05T12:56:00.721Z,420
2016-12-05T12:56:41.183Z,420
2016-12-05T12:57:21.685Z,416
2016-12-05T12:58:02.138Z,412
2016-12-05T12:58:42.630Z,412
2016-12-05T12:59:23.093Z,412
2016-12-05T13:00:04.320Z,408
2016-12-05T13:00:45.025Z,408
2016-12-05T13:01:25.490Z,408
2016-12-05T13:02:05.943Z,408
2016-12-05T13:02:46.568Z,408
2016-12-05T13:03:26.980Z,408
2016-12-05T13:04:07.426Z,404
2016-12-05T13:04:48.071Z,400
2016-12-05T13:05:28.608Z,396
2016-12-05T13:06:09.268Z,396
2016-12-05T13:06:49.704Z,396
2016-12-05T13:07:30.196Z,392
2016-12-05T13:08:10.723Z,392
2016-12-05T13:08:51.238Z,388
2016-12-05T13:09:36.826Z,384
2016-12-05T13:10:17.292Z,380
2016-12-05T13:10:57.748Z,376
2016-12-05T13:11:38.239Z,372
2016-12-05T13:12:18.683Z,372
2016-12-05T13:12:59.323Z,372
2016-12-05T13:13:39.865Z,372
2016-12-05T13:14:20.331Z,368
2016-12-05T13:15:00.873Z,364
2016-12-05T13:15:41.364Z,364
2016-12-05T13:16:21.836Z,364
2016-12-05T13:17:02.382Z,360
2016-12-05T13:17:43.590Z,356
2016-12-05T13:18:44.517Z,356
2016-12-05T13:19:25.622Z,352
2016-12-05T13:20:06.102Z,352
2016-12-05T13:20:46.554Z,348
2016-12-05T13:21:27.063Z,348
2016-12-05T13:22:07.699Z,344
2016-12-05T13:22:48.234Z,344
2016-12-05T13:23:28.712Z,344
2016-12-05T13:24:09.152Z,320
2016-12-05T13:24:49.603Z,340
2016-12-05T13:25:30.076Z,332
2016-12-05T13:26:10.523Z,288
2016-12-05T13:26:51.019Z,332
2016-12-05T13:27:32.114Z,332
2016-12-05T13:30:44.783Z,324
2016-12-05T13:31:32.210Z,320
2016-12-05T13:32:16.480Z,320
2016-12-05T13:32:56.954Z,312
2016-12-05T13:33:44.623Z,320
2016-12-05T13:53:20.296Z,340
2016-12-05T13:54:00.746Z,336
2016-12-05T13:54:41.204Z,336
2016-12-05T13:55:21.660Z,332
2016-12-05T13:56:02.129Z,332
2016-12-05T13:56:42.707Z,328
2016-12-05T13:57:23.249Z,328
2016-12-05T13:58:03.733Z,328
2016-12-05T13:58:44.275Z,328
2016-12-05T13:59:24.721Z,324
2016-12-05T14:00:05.285Z,320
2016-12-05T14:00:45.797Z,320
2016-12-05T14:01:26.257Z,316
2016-12-05T14:02:06.714Z,316
2016-12-05T14:02:47.200Z,316
2016-12-05T14:03:27.687Z,316
2016-12-05T14:04:08.677Z,312
2016-12-05T14:04:49.329Z,312
2016-12-05T14:05:29.953Z,308
2016-12-05T14:06:10.422Z,304
2016-12-05T14:06:50.888Z,304
2016-12-05T14:07:31.349Z,300
2016-12-05T14:08:11.844Z,300
2016-12-05T14:08:52.722Z,300
2016-12-05T14:09:33.207Z,296
2016-12-05T14:10:13.664Z,292
2016-12-05T14:10:55.301Z,292
2016-12-05T14:11:35.744Z,284
2016-12-05T14:12:16.238Z,292
2016-12-05T14:13:01.023Z,288
2016-12-05T14:13:42.116Z,288
2016-12-05T14:15:54.819Z,284
2016-12-05T14:16:35.312Z,280
